Time;durP1;ratioP1;P1;durP2;ratioP2;P2;SDS_P1;SDS_P2;PMS_P1;PMS_P2;Temp;Humidity;BMP_temperature;BMP_pressure;BME280_temperature;BME280_humidity;BME280_pressure;Samples;Min_cycle;Max_cycle;Signal;HPM_P1;HPM_P2
2021/05/23 00:01:16;;;;;;;3.43;3.13;;;;;;;13.24;100.00;92852.41;4956668;28;20253;-90
2021/05/23 00:03:43;;;;;;;3.10;2.90;;;;;;;13.14;100.00;92817.28;4957738;29;20201;-91
2021/05/23 00:06:11;;;;;;;3.50;3.20;;;;;;;13.12;100.00;92764.00;4957742;28;20206;-91
2021/05/23 00:08:39;;;;;;;4.30;3.67;;;;;;;12.76;100.00;92755.97;4957737;28;20638;-90
2021/05/23 00:11:08;;;;;;;4.07;3.77;;;;;;;12.75;100.00;92713.03;4957522;29;20268;-90
2021/05/23 00:13:38;;;;;;;3.57;3.27;;;;;;;12.89;100.00;92658.00;4957754;29;20292;-91
2021/05/23 00:16:06;;;;;;;3.20;2.90;;;;;;;13.04;100.00;92607.16;4957360;29;20202;-90
2021/05/23 00:18:37;;;;;;;3.10;2.90;;;;;;;13.15;100.00;92586.84;4957741;28;20326;-91
2021/05/23 00:21:05;;;;;;;3.60;3.30;;;;;;;13.17;100.00;92585.53;4957663;29;20206;-90
2021/05/23 00:23:32;;;;;;;3.80;3.50;;;;;;;13.33;100.00;92575.78;4957393;29;20671;-92
2021/05/23 00:26:00;;;;;;;3.90;3.37;;;;;;;13.44;100.00;92592.38;4957253;29;20190;-91
2021/05/23 00:28:27;;;;;;;3.50;3.30;;;;;;;13.39;100.00;92637.25;4957036;28;20229;-91
2021/05/23 00:30:54;;;;;;;4.23;3.83;;;;;;;13.35;100.00;92673.91;4957084;28;20198;-90
2021/05/23 00:33:21;;;;;;;4.27;3.97;;;;;;;13.31;100.00;92704.50;4956961;29;20194;-91
2021/05/23 00:35:49;;;;;;;3.00;2.80;;;;;;;13.38;100.00;92722.69;4957361;28;20205;-90
2021/05/23 00:38:15;;;;;;;4.33;3.13;;;;;;;13.38;100.00;92743.81;4956874;29;20202;-91
2021/05/23 00:40:43;;;;;;;5.57;3.43;;;;;;;13.39;100.00;92769.13;4956948;28;20739;-91
2021/05/23 00:43:13;;;;;;;3.37;3.00;;;;;;;13.49;100.00;92791.03;4956962;29;20260;-91
2021/05/23 00:45:40;;;;;;;3.93;3.63;;;;;;;13.37;100.00;92829.22;4957280;28;20627;-90
2021/05/23 00:48:08;;;;;;;3.30;3.10;;;;;;;13.40;100.00;92845.34;4957095;28;20284;-91
2021/05/23 00:50:36;;;;;;;3.20;2.90;;;;;;;13.47;100.00;92851.19;4957155;29;20225;-90
2021/05/23 00:53:03;;;;;;;3.30;3.00;;;;;;;13.60;100.00;92855.16;4956781;28;20205;-90
2021/05/23 00:55:31;;;;;;;3.63;3.33;;;;;;;13.61;100.00;92922.69;4956953;28;20695;-90
2021/05/23 00:57:58;;;;;;;3.70;3.40;;;;;;;13.57;100.00;92983.13;4956490;29;20202;-90
2021/05/23 01:01:09;;;;;;;4.33;3.37;;;;;;;13.59;100.00;93008.47;4956430;28;20194;-90
2021/05/23 01:03:59;;;;;;;3.70;3.40;;;;;;;13.19;100.00;93073.84;4956782;28;20194;-90
2021/05/23 01:06:28;;;;;;;3.70;3.40;;;;;;;13.11;100.00;93073.53;4956465;28;20209;-90
2021/05/23 01:08:56;;;;;;;3.17;2.97;;;;;;;13.07;100.00;93036.34;4956291;29;20210;-90
2021/05/23 01:11:55;;;;;;;4.63;3.67;;;;;;;13.14;100.00;93012.41;4956077;28;20212;-90
2021/05/23 01:14:47;;;;;;;3.47;3.27;;;;;;;13.03;100.00;93014.97;4933452;28;20257;-89
2021/05/23 01:17:15;;;;;;;3.50;3.30;;;;;;;12.97;100.00;93012.53;4956833;29;20186;-90
2021/05/23 01:20:04;;;;;;;3.80;3.43;;;;;;;13.00;100.00;93031.28;4956353;29;20225;-89
2021/05/23 01:22:37;;;;;;;4.03;3.50;;;;;;;13.03;100.00;93037.91;4956689;28;20225;-90
2021/05/23 01:25:14;;;;;;;4.03;3.60;;;;;;;13.04;100.00;93035.00;4956057;29;20194;-90
2021/05/23 01:27:46;;;;;;;3.70;3.40;;;;;;;12.77;100.00;93079.03;4955976;29;20216;-89
2021/05/23 01:30:16;;;;;;;4.33;3.33;;;;;;;12.69;100.00;93098.75;4956118;29;20667;-90
2021/05/23 01:32:48;;;;;;;3.50;3.20;;;;;;;12.60;100.00;93089.69;4956596;29;20217;-90
2021/05/23 01:35:18;;;;;;;3.53;3.23;;;;;;;12.49;100.00;93080.88;4956371;28;20202;-90
2021/05/23 01:37:48;;;;;;;3.70;2.70;;;;;;;12.56;100.00;93046.44;4955899;29;20198;-89
2021/05/23 01:40:18;;;;;;;3.30;3.00;;;;;;;12.68;100.00;93031.28;4956119;28;20253;-90
2021/05/23 01:42:46;;;;;;;4.23;3.80;;;;;;;12.19;100.00;93086.63;4955824;29;20194;-90
2021/05/23 01:45:16;;;;;;;3.77;3.37;;;;;;;11.96;100.00;93069.25;4955933;28;20202;-90
2021/05/23 01:47:44;;;;;;;5.17;3.43;;;;;;;11.97;100.00;93027.94;4956043;29;20640;-91
2021/05/23 01:50:12;;;;;;;4.37;4.07;;;;;;;11.75;100.00;92994.50;4955736;28;20212;-91
2021/05/23 01:52:53;;;;;;;7.10;4.00;;;;;;;11.89;100.00;92916.00;4955573;28;20204;-90
2021/05/23 01:55:22;;;;;;;3.53;3.23;;;;;;;12.21;100.00;92834.44;4955671;29;20224;-90
2021/05/23 01:57:50;;;;;;;4.20;3.80;;;;;;;12.25;100.00;92806.53;4955538;28;20198;-90
2021/05/23 02:00:19;;;;;;;5.70;4.00;;;;;;;12.58;100.00;92768.56;4955449;28;20225;-90
2021/05/23 02:02:47;;;;;;;4.30;3.90;;;;;;;12.28;100.00;92845.53;4955416;29;20204;-90
2021/05/23 02:05:15;;;;;;;4.27;3.87;;;;;;;12.10;100.00;92891.47;4955404;29;20206;-90
2021/05/23 02:07:42;;;;;;;4.33;3.93;;;;;;;12.27;100.00;92886.09;4955321;28;20232;-90
2021/05/23 02:10:11;;;;;;;3.77;3.57;;;;;;;12.53;100.00;92860.72;4955301;28;20261;-90
2021/05/23 02:12:41;;;;;;;4.10;3.47;;;;;;;12.43;100.00;92925.69;4955310;28;20202;-90
2021/05/23 02:15:10;;;;;;;4.13;3.83;;;;;;;12.33;100.00;92993.06;4955839;29;20293;-90
2021/05/23 02:17:37;;;;;;;5.37;3.50;;;;;;;12.44;100.00;93007.09;4955348;28;20237;-89
2021/05/23 02:20:05;;;;;;;3.53;3.23;;;;;;;12.37;100.00;93041.53;4955089;28;20206;-90
2021/05/23 02:22:37;;;;;;;3.73;3.43;;;;;;;12.17;100.00;93069.50;4955169;28;20260;-90
2021/05/23 02:25:05;;;;;;;4.13;3.80;;;;;;;11.93;100.00;93056.56;4955058;28;20224;-90
2021/05/23 02:27:36;;;;;;;4.30;4.00;;;;;;;12.08;100.00;93013.84;4955292;28;20225;-90
2021/05/23 02:30:08;;;;;;;4.13;3.83;;;;;;;12.10;100.00;93007.28;4955043;29;20280;-90
2021/05/23 02:32:36;;;;;;;4.40;3.73;;;;;;;11.88;100.00;93012.59;4955121;29;20232;-91
2021/05/23 02:35:03;;;;;;;4.93;3.47;;;;;;;12.19;100.00;92952.34;4954932;28;20197;-91
2021/05/23 02:37:30;;;;;;;5.10;4.60;;;;;;;12.56;100.00;92886.53;4955014;29;20204;-91
2021/05/23 02:39:57;;;;;;;4.00;3.70;;;;;;;12.57;100.00;92880.25;4954840;28;20201;-91
2021/05/23 02:42:24;;;;;;;4.40;4.00;;;;;;;12.60;100.00;92915.81;4954975;28;20233;-90
2021/05/23 02:44:51;;;;;;;4.60;4.20;;;;;;;12.48;100.00;93010.81;4955028;28;20213;-91
2021/05/23 02:47:19;;;;;;;4.50;3.87;;;;;;;12.25;100.00;93090.91;4955181;28;20232;-90
2021/05/23 02:49:45;;;;;;;3.80;3.50;;;;;;;12.02;100.00;93126.19;4955350;28;20580;-91
2021/05/23 02:52:12;;;;;;;4.53;4.20;;;;;;;12.02;100.00;93097.22;4955558;28;20551;-91
2021/05/23 02:54:39;;;;;;;5.07;4.07;;;;;;;12.01;100.00;93053.50;4954696;29;20284;-90
2021/05/23 02:57:07;;;;;;;3.67;3.47;;;;;;;12.14;100.00;93037.34;4955017;28;20197;-90
2021/05/23 02:59:34;;;;;;;4.03;3.73;;;;;;;12.12;100.00;93015.75;4954663;28;20201;-91
2021/05/23 03:02:01;;;;;;;4.43;4.13;;;;;;;12.48;100.00;92960.78;4954680;29;20205;-90
2021/05/23 03:04:29;;;;;;;3.97;3.67;;;;;;;12.61;100.00;92933.22;4955361;29;20237;-90
2021/05/23 03:06:56;;;;;;;5.80;3.80;;;;;;;12.70;100.00;92926.44;4954639;29;20232;-91
2021/05/23 03:09:23;;;;;;;3.77;3.47;;;;;;;12.77;100.00;92949.91;4954957;28;20213;-90
2021/05/23 03:11:50;;;;;;;4.40;3.50;;;;;;;12.63;100.00;93006.72;4954726;28;20201;-90
2021/05/23 03:14:16;;;;;;;4.30;4.00;;;;;;;12.74;100.00;93018.94;4954833;28;20205;-90
2021/05/23 03:16:43;;;;;;;5.13;4.23;;;;;;;12.54;100.00;93053.81;4954480;29;20212;-91
2021/05/23 03:19:10;;;;;;;4.77;4.43;;;;;;;12.61;100.00;93060.47;4954788;28;20590;-91
2021/05/23 03:21:39;;;;;;;6.57;4.37;;;;;;;12.77;100.00;93064.03;4955309;28;20206;-90
2021/05/23 03:24:07;;;;;;;4.53;4.20;;;;;;;12.71;100.00;93111.66;4954739;29;20213;-90
2021/05/23 03:26:35;;;;;;;4.67;4.00;;;;;;;12.76;100.00;93130.16;4954395;29;20670;-90
2021/05/23 03:29:02;;;;;;;3.97;3.67;;;;;;;12.64;100.00;93166.38;4954518;28;20202;-91
2021/05/23 03:31:28;;;;;;;4.03;3.73;;;;;;;12.72;100.00;93161.50;4954855;29;20206;-90
2021/05/23 03:33:56;;;;;;;4.87;3.63;;;;;;;12.65;100.00;93166.16;4954747;28;20205;-90
2021/05/23 03:36:22;;;;;;;3.80;3.50;;;;;;;12.64;100.00;93150.59;4956497;28;20198;-90
2021/05/23 03:38:50;;;;;;;3.70;3.40;;;;;;;12.65;100.00;93133.75;4958729;28;20198;-90
2021/05/23 03:41:17;;;;;;;4.17;3.77;;;;;;;12.54;100.00;93132.84;4958331;29;20619;-90
2021/05/23 03:43:44;;;;;;;4.40;4.10;;;;;;;12.57;100.00;93093.63;4957909;29;20198;-90
2021/05/23 03:46:11;;;;;;;4.30;3.90;;;;;;;12.49;100.00;93070.34;4958171;28;20205;-91
2021/05/23 03:48:38;;;;;;;4.03;3.67;;;;;;;12.72;100.00;93029.75;4958303;28;20257;-91
2021/05/23 03:51:05;;;;;;;4.93;3.73;;;;;;;12.74;100.00;93025.00;4958835;28;20209;-90
2021/05/23 03:53:32;;;;;;;3.53;3.33;;;;;;;12.52;100.00;93058.53;4957756;28;20205;-91
2021/05/23 03:56:00;;;;;;;4.17;3.87;;;;;;;12.36;100.00;93089.16;4958066;29;20202;-90
2021/05/23 03:58:27;;;;;;;5.13;4.50;;;;;;;12.22;100.00;93109.03;4957578;28;20202;-91
2021/05/23 04:00:53;;;;;;;3.87;3.57;;;;;;;12.44;100.00;93070.31;4957760;29;20213;-91
2021/05/23 04:03:23;;;;;;;3.93;3.63;;;;;;;12.58;100.00;93039.91;4957813;29;20220;-91
2021/05/23 04:05:50;;;;;;;6.57;5.97;;;;;;;12.70;100.00;93012.59;4957841;28;20227;-91
2021/05/23 04:08:16;;;;;;;4.43;4.03;;;;;;;12.74;100.00;93018.94;4958012;28;20222;-91
2021/05/23 04:10:50;;;;;;;4.03;3.73;;;;;;;12.80;100.00;93025.84;4957608;28;20198;-90
2021/05/23 04:13:20;;;;;;;4.37;3.97;;;;;;;12.73;100.00;93036.59;4957264;29;20640;-90
2021/05/23 04:15:47;;;;;;;37.60;33.73;;;;;;;12.91;100.00;93022.25;4957561;28;20202;-91
2021/05/23 04:18:14;;;;;;;39.93;35.80;;;;;;;12.83;100.00;93009.53;4957658;28;20202;-91
2021/05/23 04:20:41;;;;;;;14.67;13.27;;;;;;;12.74;100.00;93011.03;4957800;28;20198;-91
2021/05/23 04:23:08;;;;;;;6.30;5.80;;;;;;;12.68;100.00;93028.66;4957941;28;20280;-90
2021/05/23 04:25:35;;;;;;;6.00;5.33;;;;;;;12.73;100.00;92997.06;4957588;28;20214;-90
2021/05/23 04:28:03;;;;;;;5.23;4.73;;;;;;;12.79;100.00;92961.81;4957037;29;20222;-89
2021/05/23 04:30:31;;;;;;;4.77;4.30;;;;;;;13.00;100.00;92901.31;4957717;28;20220;-89
2021/05/23 04:32:58;;;;;;;4.03;3.73;;;;;;;12.92;100.00;92873.59;4957291;28;20198;-89
2021/05/23 04:35:26;;;;;;;3.93;3.57;;;;;;;13.03;100.00;92845.44;4957564;29;20225;-89
2021/05/23 04:37:54;;;;;;;3.70;3.50;;;;;;;12.97;100.00;92844.63;4957567;28;20202;-90
2021/05/23 04:40:21;;;;;;;4.50;4.20;;;;;;;13.15;100.00;92826.78;4957390;29;20268;-91
2021/05/23 04:42:48;;;;;;;4.57;4.17;;;;;;;13.15;100.00;92803.81;4954854;28;20245;-92
2021/05/23 04:45:25;;;;;;;4.07;3.77;;;;;;;13.18;100.00;92776.16;4956813;29;20206;-93
2021/05/23 04:47:53;;;;;;;4.30;4.00;;;;;;;13.41;100.00;92719.53;4956556;28;20226;-92
2021/05/23 04:50:22;;;;;;;4.10;3.80;;;;;;;13.62;100.00;92689.47;4956859;29;20683;-93
2021/05/23 04:52:51;;;;;;;4.43;3.63;;;;;;;13.79;100.00;92650.41;4956726;28;20205;-92
2021/05/23 04:57:59;;;;;;;4.23;3.93;;;;;;;13.84;100.00;92670.72;4956503;28;20205;-93
2021/05/23 05:00:26;;;;;;;5.23;4.83;;;;;;;13.93;100.00;92670.97;4956844;28;20761;-89
2021/05/23 05:03:01;;;;;;;5.47;5.07;;;;;;;14.07;100.00;92668.56;4960428;29;20198;-89
2021/05/23 05:05:28;;;;;;;5.17;4.77;;;;;;;14.29;100.00;92600.34;4962499;29;20237;-89
2021/05/23 05:07:55;;;;;;;5.33;4.93;;;;;;;14.45;100.00;92574.66;4956693;28;20281;-89
2021/05/23 05:10:22;;;;;;;5.03;4.63;;;;;;;14.62;100.00;92561.91;4956761;28;20625;-89
2021/05/23 05:12:49;;;;;;;4.63;4.23;;;;;;;14.85;100.00;92551.69;4956285;29;20209;-90
2021/05/23 05:15:16;;;;;;;5.83;5.20;;;;;;;14.93;100.00;92561.72;4956260;28;20209;-89
2021/05/23 05:17:43;;;;;;;4.13;3.83;;;;;;;15.08;100.00;92600.47;4956172;29;20205;-90
2021/05/23 05:20:12;;;;;;;4.33;4.03;;;;;;;15.25;100.00;92677.59;4956255;28;20202;-89
2021/05/23 05:22:39;;;;;;;4.53;4.13;;;;;;;15.33;100.00;92774.88;4956445;29;20211;-90
2021/05/23 05:25:07;;;;;;;3.80;3.50;;;;;;;15.39;100.00;92887.56;4956168;29;20214;-90
2021/05/23 05:27:34;;;;;;;3.77;3.43;;;;;;;15.53;100.00;93028.06;4956023;29;20255;-90
2021/05/23 05:30:01;;;;;;;4.13;3.03;;;;;;;15.67;100.00;93152.75;4956278;29;20294;-90
2021/05/23 05:32:28;;;;;;;3.60;3.30;;;;;;;15.75;100.00;93275.88;4955897;29;20203;-89
2021/05/23 05:34:55;;;;;;;4.10;3.80;;;;;;;15.80;100.00;93381.81;4956019;28;20203;-89
2021/05/23 05:37:24;;;;;;;3.63;3.33;;;;;;;16.00;100.00;93439.31;4956235;29;20223;-90
2021/05/23 05:39:51;;;;;;;3.77;3.47;;;;;;;16.24;100.00;93472.22;4955829;29;20208;-89
2021/05/23 05:42:18;;;;;;;3.70;3.40;;;;;;;16.51;100.00;93492.44;4955818;29;20279;-89
2021/05/23 05:44:44;;;;;;;4.03;3.73;;;;;;;16.65;100.00;93568.56;4955776;28;20212;-89
2021/05/23 05:47:11;;;;;;;3.77;3.47;;;;;;;16.76;100.00;93696.72;4955630;29;20279;-89
2021/05/23 05:49:38;;;;;;;3.67;3.40;;;;;;;17.01;100.00;93798.72;4956308;29;20208;-90
2021/05/23 05:52:06;;;;;;;5.73;3.70;;;;;;;17.24;100.00;93925.66;4955562;28;20247;-91
2021/05/23 05:54:34;;;;;;;4.60;4.20;;;;;;;17.55;100.00;94040.81;4955561;28;20674;-90
2021/05/23 05:57:01;;;;;;;5.87;5.27;;;;;;;17.85;100.00;94126.34;4955471;28;20204;-91
2021/05/23 05:59:27;;;;;;;3.30;3.10;;;;;;;17.83;100.00;94228.34;4955358;28;20200;-91
2021/05/23 06:01:54;;;;;;;4.07;3.50;;;;;;;17.73;100.00;94283.22;4955663;28;20245;-91
2021/05/23 06:04:21;;;;;;;3.30;3.10;;;;;;;17.91;100.00;94335.25;4955552;28;20232;-91
2021/05/23 06:06:48;;;;;;;3.57;3.33;;;;;;;18.05;100.00;94392.28;4955321;29;20241;-91
2021/05/23 06:09:15;;;;;;;3.70;3.40;;;;;;;17.96;100.00;94457.56;4955417;29;20353;-91
2021/05/23 06:11:43;;;;;;;3.90;3.60;;;;;;;18.17;100.00;94463.91;4955278;28;20208;-91
2021/05/23 06:14:10;;;;;;;3.80;3.50;;;;;;;18.19;100.00;94488.41;4955546;28;20295;-91
2021/05/23 06:16:36;;;;;;;4.17;3.87;;;;;;;18.55;100.00;94524.16;4955454;28;20205;-91
2021/05/23 06:19:04;;;;;;;4.03;3.73;;;;;;;18.62;100.00;94591.28;4955316;28;20201;-90
2021/05/23 06:21:30;;;;;;;3.47;3.27;;;;;;;18.90;100.00;94626.72;4955242;29;20205;-91
2021/05/23 06:23:57;;;;;;;4.20;3.90;;;;;;;19.35;100.00;94645.00;4955260;29;20241;-90
2021/05/23 06:26:24;;;;;;;3.87;3.17;;;;;;;19.61;100.00;94677.22;4955551;28;20198;-91
2021/05/23 06:28:53;;;;;;;3.70;3.17;;;;;;;19.56;100.00;94773.09;4962689;28;20225;-96
2021/05/23 06:31:21;;;;;;;3.60;3.13;;;;;;;19.94;100.00;94817.47;4994072;23;20213;-96
2021/05/23 06:36:26;;;;;;;3.80;3.50;;;;;;;20.41;100.00;94883.53;5219157;23;20265;-96
2021/05/23 07:00:04;;;;;;;8.93;4.00;;;;;;;22.00;100.00;95062.66;5263741;23;21160;-96
2021/05/23 07:22:26;;;;;;;3.50;3.20;;;;;;;22.39;100.00;95139.16;5106024;23;20241;-96
2021/05/23 07:24:54;;;;;;;4.83;3.30;;;;;;;22.65;100.00;95126.66;5063816;23;20242;-96
2021/05/23 07:27:21;;;;;;;3.53;3.23;;;;;;;22.94;100.00;95122.50;4944443;29;20285;-96
2021/05/23 07:29:48;;;;;;;4.50;3.73;;;;;;;22.76;100.00;95147.09;4947010;29;20209;-96
2021/05/23 07:32:15;;;;;;;4.63;4.27;;;;;;;22.87;100.00;95146.03;4952198;29;20183;-96
2021/05/23 07:35:07;;;;;;;5.00;4.60;;;;;;;23.13;100.00;95148.81;5334395;23;20217;-96
2021/05/23 07:37:35;;;;;;;5.67;4.40;;;;;;;22.63;100.00;95215.31;4940546;29;20225;-95
2021/05/23 07:40:03;;;;;;;5.37;4.83;;;;;;;22.79;100.00;95217.00;4940881;29;20207;-96
2021/05/23 07:42:32;;;;;;;7.30;5.40;;;;;;;22.91;100.00;95224.81;4945069;29;20206;-96
2021/05/23 07:44:59;;;;;;;4.93;4.53;;;;;;;22.34;100.00;95263.03;4943607;29;20262;-96
2021/05/23 07:47:26;;;;;;;7.10;4.57;;;;;;;22.40;100.00;95269.25;4939185;29;20237;-96
2021/05/23 07:49:53;;;;;;;5.37;4.83;;;;;;;22.87;100.00;95253.22;4939832;29;20218;-96
2021/05/23 07:52:20;;;;;;;4.50;4.20;;;;;;;23.17;100.00;95262.47;4939766;29;20199;-95
2021/05/23 07:54:48;;;;;;;4.93;4.53;;;;;;;23.06;100.00;95282.25;4939045;29;20211;-95
2021/05/23 07:57:15;;;;;;;4.63;4.17;;;;;;;23.46;100.00;95287.78;4940396;29;20195;-96
2021/05/23 07:59:42;;;;;;;6.43;4.80;;;;;;;23.59;100.00;95294.53;4940510;29;20206;-95
2021/05/23 08:02:09;;;;;;;5.17;4.67;;;;;;;23.69;100.00;95299.97;4939329;29;20218;-95
2021/05/23 08:04:36;;;;;;;4.50;4.20;;;;;;;23.49;100.00;95316.75;4939482;29;20257;-96
2021/05/23 08:07:03;;;;;;;4.80;4.40;;;;;;;23.72;100.00;95315.50;4944205;29;20198;-96
2021/05/23 08:09:31;;;;;;;4.17;3.77;;;;;;;23.65;100.00;95328.31;4943004;29;20195;-96
2021/05/23 08:11:59;;;;;;;6.87;4.57;;;;;;;23.84;100.00;95330.56;4943004;29;20672;-96
2021/05/23 08:14:26;;;;;;;4.13;3.83;;;;;;;24.32;100.00;95305.13;4945694;29;20206;-96
2021/05/23 08:16:53;;;;;;;5.57;4.97;;;;;;;24.46;100.00;95326.09;4945836;29;20201;-96
2021/05/23 08:19:20;;;;;;;3.77;3.47;;;;;;;24.57;100.00;95357.25;4949776;28;20194;-96
2021/05/23 08:25:30;;;;;;;3.53;3.23;;;;;;;24.58;100.00;95434.88;4975079;28;20181;-96
2021/05/23 08:28:01;;;;;;;3.50;3.30;;;;;;;24.54;100.00;95435.69;4976529;28;20237;-96
2021/05/23 08:30:28;;;;;;;4.10;3.73;;;;;;;24.28;100.00;95435.63;5272291;23;20244;-96
2021/05/23 08:35:36;;;;;;;4.00;3.57;;;;;;;24.16;100.00;95421.63;4954413;29;20222;-96
2021/05/23 08:47:03;;;;;;;3.27;3.07;;;;;;;24.22;100.00;95434.00;4950553;28;20294;-96
2021/05/23 08:49:37;;;;;;;3.40;3.10;;;;;;;24.44;100.00;95397.00;5535250;23;20222;-95
2021/05/23 08:55:37;;;;;;;3.80;3.00;;;;;;;24.22;100.00;95407.16;1972690;23;20403;-94
2021/05/23 09:00:51;;;;;;;3.10;2.87;;;;;;;24.26;100.00;95428.91;5160685;23;20200;-96
2021/05/23 09:08:43;;;;;;;3.60;2.60;;;;;;;24.34;100.00;95431.84;1632901;23;20434;-95
2021/05/23 09:18:52;;;;;;;3.40;3.13;;;;;;;24.84;100.00;95419.59;4957404;28;20227;-95
2021/05/23 09:26:40;;;;;;;2.90;2.70;;;;;;;24.77;100.00;95470.13;5284585;23;20241;-96
2021/05/23 09:29:10;;;;;;;4.27;2.63;;;;;;;25.05;100.00;95446.47;4957668;29;20213;-96
2021/05/23 09:31:37;;;;;;;3.23;2.53;;;;;;;24.84;100.00;95443.78;4957315;28;20331;-96
2021/05/23 09:34:06;;;;;;;3.73;2.30;;;;;;;24.81;100.00;95420.13;4956011;28;20276;-95
2021/05/23 09:36:44;;;;;;;4.00;3.03;;;;;;;24.83;100.00;95399.16;4956161;28;20292;-96
2021/05/23 09:39:11;;;;;;;3.07;2.83;;;;;;;24.73;100.00;95420.69;4956348;29;20274;-96
2021/05/23 09:41:38;;;;;;;5.33;3.00;;;;;;;24.56;100.00;95495.31;4956899;28;20214;-95
2021/05/23 09:44:16;;;;;;;3.13;2.07;;;;;;;24.47;100.00;95515.72;4955937;28;20212;-94
2021/05/23 09:46:54;;;;;;;2.97;2.43;;;;;;;24.36;100.00;95499.56;4961863;28;20190;-94
2021/05/23 09:49:23;;;;;;;6.07;2.57;;;;;;;24.50;100.00;95445.38;4955856;29;20222;-93
2021/05/23 09:51:52;;;;;;;3.03;2.30;;;;;;;24.63;100.00;95444.84;4955650;28;20228;-93
2021/05/23 09:54:19;;;;;;;2.37;2.27;;;;;;;24.71;100.00;95494.56;4956013;28;20667;-94
2021/05/23 09:56:47;;;;;;;3.93;3.20;;;;;;;24.51;100.00;95473.84;4961483;28;20202;-92
2021/05/23 09:59:22;;;;;;;2.47;2.10;;;;;;;24.51;100.00;95452.34;4956211;29;20642;-94
2021/05/23 10:01:49;;;;;;;2.73;2.50;;;;;;;24.73;100.00;95428.75;4955800;28;20208;-93
2021/05/23 10:04:21;;;;;;;2.23;2.13;;;;;;;24.74;100.00;95467.97;4955764;29;20198;-94
2021/05/23 10:06:59;;;;;;;2.23;2.13;;;;;;;25.12;100.00;95447.84;4956167;28;20202;-95
2021/05/23 10:09:27;;;;;;;3.17;2.33;;;;;;;25.12;100.00;95465.84;4955483;29;20707;-94
2021/05/23 10:11:54;;;;;;;2.37;2.17;;;;;;;25.51;100.00;95484.88;4955532;29;20198;-95
2021/05/23 10:14:21;;;;;;;3.33;2.50;;;;;;;25.71;100.00;95384.47;4955847;28;20206;-95
2021/05/23 10:16:51;;;;;;;3.33;2.77;;;;;;;25.74;100.00;95373.16;4955808;29;20202;-95
2021/05/23 10:19:19;;;;;;;3.10;2.67;;;;;;;26.01;100.00;95345.03;4955214;29;20222;-96
2021/05/23 10:21:48;;;;;;;3.10;2.87;;;;;;;25.67;100.00;95401.41;4955290;28;20244;-93
2021/05/23 10:24:25;;;;;;;3.03;2.83;;;;;;;25.68;100.00;95331.19;4955451;29;20638;-94
2021/05/23 10:26:55;;;;;;;7.53;2.93;;;;;;;26.08;100.00;95267.44;4955463;29;20233;-96
2021/05/23 10:29:23;;;;;;;3.20;2.90;;;;;;;26.20;100.00;95286.75;4955646;29;20679;-95
2021/05/23 10:31:50;;;;;;;3.83;3.53;;;;;;;25.96;100.00;95398.91;4955557;29;20209;-96
2021/05/23 11:15:44;;;;;;;2.30;2.10;;;;;;;26.92;100.00;95860.47;4934299;29;20222;-92
2021/05/23 11:18:15;;;;;;;4.47;2.22;;;;;;;26.67;100.00;95961.84;4935669;29;20571;-93
2021/05/23 11:20:42;;;;;;;3.08;2.08;;;;;;;26.63;100.00;96079.34;4935802;29;20242;-92
2021/05/23 11:23:09;;;;;;;4.10;2.10;;;;;;;26.74;100.00;96209.59;4943193;29;20199;-94
2021/05/23 11:25:38;;;;;;;1.98;1.88;;;;;;;27.03;100.00;96212.69;4939638;29;20755;-93
2021/05/23 11:30:40;;;;;;;2.08;1.98;;;;;;;26.95;100.00;95957.81;5191418;23;20237;-95
2021/05/23 11:38:11;;;;;;;2.38;2.17;;;;;;;26.85;100.00;96245.53;5056220;23;20215;-95
2021/05/23 11:43:18;;;;;;;3.00;1.90;;;;;;;26.75;100.00;96274.06;5272678;23;20630;-93
2021/05/23 11:45:56;;;;;;;2.03;1.92;;;;;;;26.76;100.00;96469.81;4956530;29;20186;-93
2021/05/23 11:48:34;;;;;;;2.45;1.70;;;;;;;26.77;100.00;96468.72;4954340;29;20225;-93
2021/05/23 11:51:01;;;;;;;2.03;1.88;;;;;;;27.00;100.00;96445.19;4954612;29;20280;-94
2021/05/23 11:53:43;;;;;;;2.58;2.38;;;;;;;26.68;100.00;96481.06;4954541;28;20194;-94
2021/05/23 11:56:14;;;;;;;3.95;1.90;;;;;;;26.88;100.00;96474.19;4959635;28;20193;-96
2021/05/23 11:58:45;;;;;;;2.58;2.00;;;;;;;27.33;100.00;96451.34;5254060;23;20329;-95
2021/05/23 12:01:15;;;;;;;2.72;2.50;;;;;;;27.27;100.00;96482.91;4961828;29;20198;-95
2021/05/23 12:03:42;;;;;;;2.28;1.83;;;;;;;27.41;100.00;96512.97;4992354;23;20207;-96
2021/05/23 12:06:18;;;;;;;4.78;3.10;;;;;;;27.15;100.00;96520.84;5667108;23;20244;-95
2021/05/23 12:08:46;;;;;;;1.70;1.60;;;;;;;27.04;100.00;96525.31;5434395;23;20280;-96
2021/05/23 12:13:49;;;;;;;2.17;1.70;;;;;;;26.67;100.00;96527.97;5227893;23;20419;-94
2021/05/23 12:16:21;;;;;;;4.90;3.17;;;;;;;26.42;100.00;96528.47;5052216;23;20204;-94
2021/05/23 12:21:25;;;;;;;2.30;2.10;;;;;;;26.63;100.00;96502.56;5590274;23;20236;-96
2021/05/23 12:23:56;;;;;;;2.30;2.10;;;;;;;27.16;100.00;96435.34;5393059;23;20307;-96
2021/05/23 12:26:24;;;;;;;2.35;2.15;;;;;;;26.90;100.00;96421.63;5199990;23;20228;-96
2021/05/23 12:28:52;;;;;;;2.13;2.03;;;;;;;26.98;100.00;96393.38;5491646;23;20217;-96
2021/05/23 12:36:30;;;;;;;2.22;2.03;;;;;;;27.15;100.00;96391.34;5501000;23;20229;-96
2021/05/23 12:41:41;;;;;;;3.38;2.00;;;;;;;27.42;100.00;96401.22;5334752;23;20241;-95
2021/05/23 12:44:18;;;;;;;3.97;1.80;;;;;;;27.66;100.00;96405.09;4940868;29;20198;-93
2021/05/23 12:46:45;;;;;;;2.05;1.95;;;;;;;27.68;100.00;96408.38;4938105;29;20218;-91
2021/05/23 12:49:17;;;;;;;2.58;2.10;;;;;;;27.95;100.00;96419.03;4937974;29;20602;-91
2021/05/23 12:51:46;;;;;;;4.45;2.05;;;;;;;26.76;100.00;96452.81;4938318;29;20202;-90
2021/05/23 12:54:25;;;;;;;1.85;1.75;;;;;;;26.54;100.00;96451.00;4937883;29;20206;-90
2021/05/23 12:56:53;;;;;;;4.22;1.90;;;;;;;26.94;100.00;96425.44;4937696;29;20640;-91
2021/05/23 12:59:20;;;;;;;2.15;1.95;;;;;;;26.92;100.00;96443.78;4937623;29;20199;-92
2021/05/23 13:01:48;;;;;;;3.03;1.92;;;;;;;26.89;100.00;96446.19;4937503;29;20206;-91
2021/05/23 13:04:19;;;;;;;1.98;1.88;;;;;;;27.08;100.00;96425.00;4937407;29;20278;-90
2021/05/23 13:06:48;;;;;;;1.98;1.88;;;;;;;26.84;100.00;96419.16;4937918;29;20194;-91
2021/05/23 13:09:16;;;;;;;2.97;2.78;;;;;;;27.16;100.00;96362.50;4936669;29;20222;-90
2021/05/23 13:11:50;;;;;;;2.20;2.08;;;;;;;27.41;100.00;96394.19;4937790;29;20225;-90
2021/05/23 13:14:18;;;;;;;2.65;2.30;;;;;;;27.41;100.00;96391.50;4936662;29;20206;-92
2021/05/23 13:16:50;;;;;;;2.22;2.13;;;;;;;27.20;100.00;96404.88;4937159;29;20213;-91
2021/05/23 13:19:17;;;;;;;2.60;2.40;;;;;;;27.56;100.00;96382.66;4937116;29;20190;-91
2021/05/23 13:21:44;;;;;;;2.85;2.10;;;;;;;26.86;100.00;96449.41;4936992;29;20668;-91
2021/05/23 13:24:11;;;;;;;3.17;2.35;;;;;;;26.83;100.00;96439.13;4936944;29;20205;-91
2021/05/23 13:26:47;;;;;;;5.65;2.40;;;;;;;26.51;100.00;96435.34;4936933;29;20198;-90
2021/05/23 13:29:14;;;;;;;2.75;2.53;;;;;;;26.47;100.00;96430.72;4936994;29;20210;-90
2021/05/23 13:31:42;;;;;;;3.28;3.03;;;;;;;26.90;100.00;96410.03;4937361;29;20606;-91
2021/05/23 13:34:09;;;;;;;3.88;3.22;;;;;;;27.35;100.00;96387.97;4937315;29;20277;-91
2021/05/23 13:36:36;;;;;;;3.17;2.88;;;;;;;27.06;100.00;96425.28;4936762;29;20199;-90
2021/05/23 13:39:05;;;;;;;2.65;2.40;;;;;;;27.04;100.00;96422.00;4936798;29;20206;-91
2021/05/23 13:41:34;;;;;;;5.93;2.72;;;;;;;27.39;100.00;96388.25;4936966;29;20642;-91
2021/05/23 13:44:01;;;;;;;4.18;2.65;;;;;;;26.74;100.00;96417.19;4936767;29;20688;-92
2021/05/23 13:46:28;;;;;;;2.22;2.08;;;;;;;26.49;100.00;96436.66;4936662;29;20210;-91
2021/05/23 13:48:56;;;;;;;4.68;3.13;;;;;;;26.74;100.00;96419.88;4936968;29;20230;-91
2021/05/23 13:51:23;;;;;;;4.07;2.42;;;;;;;26.75;100.00;96421.53;4936653;29;20344;-91
2021/05/23 13:53:50;;;;;;;3.75;3.08;;;;;;;27.03;100.00;96377.22;4936658;29;20203;-90
2021/05/23 13:56:17;;;;;;;5.70;3.50;;;;;;;26.70;100.00;96376.47;4936846;29;20210;-90
2021/05/23 13:58:44;;;;;;;3.47;3.17;;;;;;;26.77;100.00;96355.47;4936702;29;20206;-90
2021/05/23 14:01:11;;;;;;;3.53;3.13;;;;;;;26.68;100.00;96364.31;4938610;29;20229;-91
2021/05/23 14:03:37;;;;;;;3.90;2.92;;;;;;;26.74;100.00;96347.09;4936678;29;20206;-92